CheckWX is a tool to help pilots better visualize weather data.  It is not intended as a substitute for an official pre-flight weather briefing.

16:57:27 UTC

CYBL TAF
Campbell River Airport
Campbell River, Canada
TAF CYBL 181438Z 1815/1903 31012KT P6SM FEW020 SCT250 FM182100 35008KT P6SM FEW060 BECMG 1901/1903 32010G20KT RMK NXT FCST BY 181900Z

Jun-18@
15:00 UTC

Jun-18 @ 15:00 UTC

Jun-18@
21:00 UTC

Jun-18 @ 21:00 UTC

TAF CYBL 181438Z 1815/1903 31012KT P6SM FEW020 SCT250
Wind
  • 310° at 12 KTS
Cloud Levels
  • Few at 2,000' AGL
  • Scattered at 25,000' AGL

Jun-18@
21:00 UTC

Jun-18 @ 21:00 UTC

Jun-19@
01:00 UTC

Jun-19 @ 01:00 UTC

FM182100 35008KT P6SM FEW060

From

From Standard forecast or significant change

Wind
  • 350° at 8 KTS
Cloud Levels
  • Few at 6,000' AGL

Jun-19@
01:00 UTC

Jun-19 @ 01:00 UTC

Jun-19@
03:00 UTC

Jun-19 @ 03:00 UTC

BECMG 1901/1903 32010G20KT RMK NXT FCST BY 181900Z

Becoming

Becoming Conditions expected by Wed, Jun 19, 2019 @ 03:00 UTC

Wind
  • 320° at 10 KTS
  • {Gusting to 20 KTS
Cloud Levels
  • Few at 6,000' AGL